< < Back
Terminal Aerodrome Forecast


Current Version              Previous Versions:   1  2  3  4  5  6  7  8  9  

Terminal Aerodrome Forecast

915
FTUS42 KFFC 052334
TAFPDK
TAF
KPDK 052334Z 0600/0624 24006KT P6SM FEW050 SCT100
     FM060200 25005KT P6SM SCT100 BKN250
     FM060800 24004KT 6SM BR BKN012
     FM061000 25004KT 4SM BR BKN007
     FM061500 28006KT P6SM BKN012
     FM061700 24005KT P6SM BKN040 PROB30 0619/0623 5SM TSRA
      BKN025CB=

Latest METAR

121
SAUS70 KWBC 062300 RRZ
MTRPDK
METAR KPDK 062153Z 21007KT 6SM HZ CLR 28/21 A3011 RMK AO2 SLP179
T02830211


USA.gov is the U.S. government's official web portal to all federal, state and local government web resources and services.